Portada
METAR-TAF:

METAR-TAF

Aeroports :

Mudgee, Austràlia

latitud: 32-33-45S, longitud: 149-36-40E, altitud: 471 m

Observació

L'informe es va fer fa 15 minuts, a les 19:00 UTC
Vent 2 kt del Est/Nord-Est
Temperatura -1°C
Humitat 100%
Pressió 1019 hPa
Visibilitat 10 km o més

METAR: YMDG 141900Z AUTO 06002KT 9999 // NCD M01/M01 Q1019

Hora: 05:15 (19:15 UTC)


TAF: manca

Observacions i pronòstics meteorològics de més de 4000 aeroports (METAR i TAF).

Les estacions disponibles són els punts grocs i vermells al mapa.

Posi el ratolí al punt desitjat per veure el nom de l'estació.

Feu clic per veure les observacions i els pronòstics meteorològics.

Per canviar el mapa: feu clic els botons verds amb una creu de color negre per apropar; al botó verd amb un guió per allunyar la imatge; o en les fletxes verdes per a mapes adjacents.


METAR-TAF: